createdAt,value
2023-11-18T00:00:40.167Z,959.83
2023-11-18T00:01:40.189Z,959.82
2023-11-18T00:02:40.368Z,959.81
2023-11-18T00:03:40.175Z,959.79
2023-11-18T00:04:40.153Z,959.82
2023-11-18T00:05:40.085Z,959.85
2023-11-18T00:06:40.090Z,959.89
2023-11-18T00:07:40.095Z,959.84
2023-11-18T00:08:40.033Z,959.86
2023-11-18T00:09:40.035Z,959.86
2023-11-18T00:10:40.129Z,959.87
2023-11-18T00:11:40.023Z,959.91
2023-11-18T00:12:40.022Z,959.90
2023-11-18T00:13:40.140Z,959.91
2023-11-18T00:14:39.974Z,959.92
2023-11-18T00:15:39.969Z,959.94
2023-11-18T00:16:40.284Z,959.92
2023-11-18T00:17:40.033Z,959.94
2023-11-18T00:18:39.926Z,959.92
2023-11-18T00:19:39.937Z,959.93
2023-11-18T00:20:39.906Z,959.90
2023-11-18T00:21:39.880Z,959.90
2023-11-18T00:22:39.950Z,959.91
2023-11-18T00:23:39.866Z,959.92
2023-11-18T00:24:39.859Z,959.85
2023-11-18T00:25:39.874Z,959.88
2023-11-18T00:26:39.817Z,959.90
2023-11-18T00:27:39.864Z,959.93
2023-11-18T00:28:39.885Z,959.91
2023-11-18T00:29:39.772Z,959.90
2023-11-18T00:30:39.772Z,959.91
2023-11-18T00:31:39.983Z,959.88
2023-11-18T00:32:39.966Z,959.87
2023-11-18T00:33:39.794Z,959.85
2023-11-18T00:34:39.762Z,959.87
2023-11-18T00:35:39.691Z,959.87
2023-11-18T00:36:39.684Z,959.84
2023-11-18T00:37:39.851Z,959.85
2023-11-18T00:38:39.656Z,959.81
2023-11-18T00:39:39.645Z,959.84
2023-11-18T00:40:39.682Z,959.85
2023-11-18T00:41:39.612Z,959.85
2023-11-18T00:42:39.674Z,959.91
2023-11-18T00:43:39.617Z,959.94
2023-11-18T00:44:39.565Z,959.94
2023-11-18T00:45:39.572Z,959.90
2023-11-18T00:46:39.632Z,959.98
2023-11-18T00:47:39.617Z,959.97
2023-11-18T00:48:39.512Z,959.98
2023-11-18T00:49:39.542Z,959.91
2023-11-18T00:50:39.486Z,959.91
2023-11-18T00:51:39.497Z,959.94
2023-11-18T00:52:39.683Z,959.98
2023-11-18T00:53:39.441Z,960.00
2023-11-18T00:54:39.444Z,960.02
2023-11-18T00:55:39.464Z,960.02
2023-11-18T00:56:39.410Z,960.05
2023-11-18T00:57:39.476Z,960.05
2023-11-18T00:58:39.430Z,960.05
2023-11-18T00:59:39.377Z,960.03
2023-11-18T01:00:39.360Z,960.01
2023-11-18T01:01:39.444Z,960.04
2023-11-18T01:02:39.395Z,960.05
2023-11-18T01:03:39.359Z,960.08
2023-11-18T01:04:39.349Z,960.07
2023-11-18T01:05:39.291Z,960.05
2023-11-18T01:06:39.280Z,960.06
2023-11-18T01:07:39.313Z,960.05
2023-11-18T01:08:39.265Z,960.08
2023-11-18T01:09:39.271Z,960.03
2023-11-18T01:10:39.262Z,960.01
2023-11-18T01:11:39.210Z,960.06
2023-11-18T01:12:39.192Z,960.01
2023-11-18T01:13:39.225Z,960.08
2023-11-18T01:14:40.229Z,960.05
2023-11-18T01:15:39.195Z,960.06
2023-11-18T01:16:39.140Z,960.11
2023-11-18T01:17:39.164Z,960.09
2023-11-18T01:18:39.203Z,960.10
2023-11-18T01:19:39.251Z,960.10
2023-11-18T01:20:39.123Z,960.10
2023-11-18T01:21:39.108Z,960.09
2023-11-18T01:22:39.100Z,960.12
2023-11-18T01:23:39.047Z,960.12
2023-11-18T01:24:39.066Z,960.11
2023-11-18T01:25:39.028Z,960.10
2023-11-18T01:26:39.034Z,960.05
2023-11-18T01:27:39.047Z,960.07
2023-11-18T01:28:39.016Z,960.02
2023-11-18T01:29:38.969Z,960.00
2023-11-18T01:30:38.972Z,960.04
2023-11-18T01:31:49.883Z,960.03
2023-11-18T01:32:39.018Z,960.06
2023-11-18T01:33:38.931Z,960.05
2023-11-18T01:34:38.914Z,960.02
2023-11-18T01:35:38.887Z,960.05
2023-11-18T01:36:38.882Z,960.08
2023-11-18T01:37:38.899Z,960.08
2023-11-18T01:38:38.917Z,960.02
2023-11-18T01:39:38.836Z,960.03
2023-11-18T01:40:38.854Z,960.02
2023-11-18T01:41:38.826Z,960.05
2023-11-18T01:42:38.789Z,960.08
2023-11-18T01:43:38.805Z,960.05
2023-11-18T01:44:38.803Z,960.05
2023-11-18T01:45:38.819Z,960.12
2023-11-18T01:46:38.782Z,960.12
2023-11-18T01:47:38.789Z,960.09
2023-11-18T01:48:38.719Z,960.09
2023-11-18T01:49:38.726Z,960.12
2023-11-18T01:50:38.735Z,960.11
2023-11-18T01:51:38.675Z,960.08
2023-11-18T01:52:38.695Z,960.12
2023-11-18T01:53:38.659Z,960.08
2023-11-18T01:54:38.628Z,960.11
2023-11-18T01:55:38.703Z,960.03
2023-11-18T01:56:38.646Z,960.05
2023-11-18T01:57:38.635Z,960.07
2023-11-18T01:58:38.610Z,960.09
2023-11-18T01:59:38.580Z,960.05
2023-11-18T02:00:38.562Z,960.06
2023-11-18T02:01:38.622Z,960.06
2023-11-18T02:02:38.692Z,960.06
2023-11-18T02:03:38.589Z,960.03
2023-11-18T02:04:38.730Z,960.05
2023-11-18T02:05:38.492Z,960.08
2023-11-18T02:06:38.478Z,960.12
2023-11-18T02:07:38.760Z,960.08
2023-11-18T02:08:38.482Z,960.11
2023-11-18T02:09:38.431Z,960.09
2023-11-18T02:10:38.514Z,960.10
2023-11-18T02:11:38.413Z,960.10
2023-11-18T02:12:38.391Z,960.04
2023-11-18T02:13:38.422Z,960.11
2023-11-18T02:14:38.429Z,960.11
2023-11-18T02:15:38.369Z,960.10
2023-11-18T02:16:38.388Z,960.09
2023-11-18T02:17:38.385Z,960.05
2023-11-18T02:18:38.387Z,960.11
2023-11-18T02:19:38.351Z,960.07
2023-11-18T02:20:38.378Z,960.08
2023-11-18T02:21:38.281Z,960.12
2023-11-18T02:22:38.305Z,960.12
2023-11-18T02:23:38.258Z,960.10
2023-11-18T02:24:38.242Z,960.10
2023-11-18T02:25:38.249Z,960.09
2023-11-18T02:26:38.232Z,960.07
2023-11-18T02:27:38.207Z,960.06
2023-11-18T02:28:38.240Z,960.02
2023-11-18T02:29:38.296Z,960.04
2023-11-18T02:30:38.158Z,960.01
2023-11-18T02:31:38.140Z,960.05
2023-11-18T02:32:38.400Z,960.02
2023-11-18T02:33:38.216Z,959.99
2023-11-18T02:34:38.132Z,960.00
2023-11-18T02:35:38.087Z,959.95
2023-11-18T02:36:38.082Z,959.95
2023-11-18T02:37:38.080Z,960.04
2023-11-18T02:38:39.692Z,960.00
2023-11-18T02:39:38.082Z,960.00
2023-11-18T02:40:38.077Z,960.00
2023-11-18T02:41:38.044Z,960.03
2023-11-18T02:42:38.009Z,959.99
2023-11-18T02:43:38.005Z,960.02
2023-11-18T02:44:38.000Z,960.01
2023-11-18T02:45:37.956Z,960.03
2023-11-18T02:46:37.988Z,960.04
2023-11-18T02:47:37.981Z,960.02
2023-11-18T02:48:37.920Z,960.01
2023-11-18T02:49:37.931Z,960.06
2023-11-18T02:50:37.954Z,960.07
2023-11-18T02:51:37.867Z,960.14
2023-11-18T02:52:37.904Z,960.09
2023-11-18T02:53:37.877Z,960.15
2023-11-18T02:54:37.833Z,960.11
2023-11-18T02:55:37.864Z,960.11
2023-11-18T02:56:37.842Z,960.11
2023-11-18T02:57:37.991Z,960.12
2023-11-18T02:58:37.830Z,960.14
2023-11-18T02:59:37.811Z,960.16
2023-11-18T03:00:37.785Z,960.12
2023-11-18T03:01:37.850Z,960.11
2023-11-18T03:02:37.799Z,960.13
2023-11-18T03:03:37.771Z,960.15
2023-11-18T03:04:37.788Z,960.16
2023-11-18T03:05:37.779Z,960.14
2023-11-18T03:06:37.696Z,960.24
2023-11-18T03:07:37.679Z,960.20
2023-11-18T03:08:37.695Z,960.21
2023-11-18T03:09:37.639Z,960.19
2023-11-18T03:10:37.633Z,960.18
2023-11-18T03:11:37.617Z,960.21
2023-11-18T03:12:37.604Z,960.21
2023-11-18T03:13:37.615Z,960.15
2023-11-18T03:14:37.603Z,960.19
2023-11-18T03:15:37.570Z,960.22
2023-11-18T03:16:37.626Z,960.20
2023-11-18T03:17:37.562Z,960.22
2023-11-18T03:18:37.530Z,960.18
2023-11-18T03:19:38.030Z,960.18
2023-11-18T03:20:37.531Z,960.17
2023-11-18T03:21:37.498Z,960.23
2023-11-18T03:22:37.522Z,960.25
2023-11-18T03:23:37.454Z,960.25
2023-11-18T03:24:37.434Z,960.27
2023-11-18T03:25:37.467Z,960.26
2023-11-18T03:26:37.432Z,960.26
2023-11-18T03:27:37.383Z,960.28
2023-11-18T03:28:37.408Z,960.32
2023-11-18T03:29:37.375Z,960.32
2023-11-18T03:30:37.352Z,960.32
2023-11-18T03:31:37.352Z,960.31
2023-11-18T03:32:37.483Z,960.32
2023-11-18T03:33:37.371Z,960.36
2023-11-18T03:34:37.365Z,960.36
2023-11-18T03:35:37.330Z,960.38
2023-11-18T03:36:37.281Z,960.44
2023-11-18T03:37:37.336Z,960.42
2023-11-18T03:38:37.254Z,960.39
2023-11-18T03:39:37.249Z,960.39
2023-11-18T03:40:37.321Z,960.37
2023-11-18T03:41:37.227Z,960.39
2023-11-18T03:42:37.206Z,960.36
2023-11-18T03:43:37.245Z,960.39
2023-11-18T03:44:37.172Z,960.43
2023-11-18T03:45:37.181Z,960.39
2023-11-18T03:46:37.225Z,960.45
2023-11-18T03:47:37.149Z,960.42
2023-11-18T03:48:37.131Z,960.48
2023-11-18T03:49:37.189Z,960.48
2023-11-18T03:50:37.080Z,960.48
2023-11-18T03:51:37.073Z,960.53
2023-11-18T03:52:37.105Z,960.55
2023-11-18T03:53:37.051Z,960.55
2023-11-18T03:54:37.045Z,960.55
2023-11-18T03:55:37.066Z,960.52
2023-11-18T03:56:37.019Z,960.53
2023-11-18T03:57:37.024Z,960.53
2023-11-18T03:58:37.005Z,960.53
2023-11-18T03:59:36.961Z,960.56
2023-11-18T04:00:36.959Z,960.56
2023-11-18T04:01:37.042Z,960.58
2023-11-18T04:02:37.189Z,960.60
2023-11-18T04:03:36.934Z,960.59
2023-11-18T04:04:37.007Z,960.56
2023-11-18T04:05:36.883Z,960.58
2023-11-18T04:06:36.907Z,960.59
2023-11-18T04:07:36.888Z,960.59
2023-11-18T04:08:36.838Z,960.63
2023-11-18T04:09:36.843Z,960.60
2023-11-18T04:10:36.869Z,960.59
2023-11-18T04:11:36.822Z,960.59
2023-11-18T04:12:36.867Z,960.58
2023-11-18T04:13:36.791Z,960.61
2023-11-18T04:14:36.768Z,960.62
2023-11-18T04:15:36.764Z,960.66
2023-11-18T04:16:36.792Z,960.69
2023-11-18T04:17:36.874Z,960.72
2023-11-18T04:18:36.773Z,960.72
2023-11-18T04:19:36.757Z,960.73
2023-11-18T04:20:36.686Z,960.76
2023-11-18T04:21:36.692Z,960.78
2023-11-18T04:22:36.720Z,960.78
2023-11-18T04:23:36.667Z,960.78
2023-11-18T04:24:36.653Z,960.78
2023-11-18T04:25:36.665Z,960.81
2023-11-18T04:26:36.596Z,960.82
2023-11-18T04:27:36.586Z,960.81
2023-11-18T04:28:36.628Z,960.82
2023-11-18T04:29:36.583Z,960.81
2023-11-18T04:30:36.631Z,960.81
2023-11-18T04:31:36.558Z,960.79
2023-11-18T04:32:36.553Z,960.83
2023-11-18T04:33:36.576Z,960.82
2023-11-18T04:34:36.530Z,960.80
2023-11-18T04:35:36.492Z,960.84
2023-11-18T04:36:36.523Z,960.79
2023-11-18T04:37:36.663Z,960.80
2023-11-18T04:38:36.487Z,960.80
2023-11-18T04:39:36.447Z,960.79
2023-11-18T04:40:36.574Z,960.75
2023-11-18T04:41:36.452Z,960.74
2023-11-18T04:42:36.440Z,960.79
2023-11-18T04:43:42.714Z,960.82
2023-11-18T04:44:36.373Z,960.80
2023-11-18T04:45:36.461Z,960.83
2023-11-18T04:46:36.342Z,960.84
2023-11-18T04:47:36.457Z,960.81
2023-11-18T04:48:39.939Z,960.81
2023-11-18T04:49:36.369Z,960.80
2023-11-18T04:50:36.321Z,960.83
2023-11-18T04:51:36.268Z,960.91
2023-11-18T04:52:36.469Z,960.89
2023-11-18T04:53:36.267Z,960.87
2023-11-18T04:54:36.274Z,960.89
2023-11-18T04:55:36.251Z,960.86
2023-11-18T04:56:36.215Z,960.81
2023-11-18T04:57:36.183Z,960.79
2023-11-18T04:58:36.257Z,960.84
2023-11-18T04:59:36.195Z,960.86
2023-11-18T05:00:36.172Z,960.90
2023-11-18T05:01:36.233Z,960.90
2023-11-18T05:02:36.178Z,960.89
2023-11-18T05:03:36.167Z,960.89
2023-11-18T05:04:36.135Z,960.89
2023-11-18T05:05:36.121Z,960.92
2023-11-18T05:06:36.104Z,960.91
2023-11-18T05:07:36.930Z,960.85
2023-11-18T05:08:36.151Z,960.85
2023-11-18T05:09:36.930Z,960.82
2023-11-18T05:10:36.936Z,960.85
2023-11-18T05:11:36.037Z,960.86
2023-11-18T05:12:35.987Z,960.85
2023-11-18T05:13:36.017Z,960.85
2023-11-18T05:14:35.970Z,960.82
2023-11-18T05:15:35.959Z,960.80
2023-11-18T05:16:35.979Z,960.79
2023-11-18T05:17:36.033Z,960.80
2023-11-18T05:18:36.056Z,960.77
2023-11-18T05:19:35.946Z,960.78
2023-11-18T05:20:35.890Z,960.76
2023-11-18T05:21:35.907Z,960.77
2023-11-18T05:22:35.904Z,960.78
2023-11-18T05:23:35.892Z,960.79
2023-11-18T05:24:35.877Z,960.84
2023-11-18T05:25:35.843Z,960.86
2023-11-18T05:26:35.810Z,960.85
2023-11-18T05:27:35.801Z,960.88
2023-11-18T05:28:35.980Z,960.90
2023-11-18T05:29:35.803Z,960.95
2023-11-18T05:30:35.772Z,960.98
2023-11-18T05:31:35.891Z,960.94
2023-11-18T05:32:35.784Z,960.95
2023-11-18T05:33:35.827Z,960.95
2023-11-18T05:34:35.765Z,961.02
2023-11-18T05:35:35.691Z,961.03
2023-11-18T05:36:35.664Z,961.05
2023-11-18T05:37:35.688Z,961.04
2023-11-18T05:38:35.654Z,961.08
2023-11-18T05:39:35.648Z,961.06
2023-11-18T05:40:35.718Z,961.07
2023-11-18T05:41:35.608Z,961.05
2023-11-18T05:42:37.903Z,961.01
2023-11-18T05:43:35.623Z,960.99
2023-11-18T05:44:35.558Z,960.98
2023-11-18T05:45:35.565Z,961.00
2023-11-18T05:46:35.656Z,961.00
2023-11-18T05:47:35.597Z,961.00
2023-11-18T05:48:35.536Z,961.02
2023-11-18T05:49:35.560Z,960.98
2023-11-18T05:50:35.550Z,960.99
2023-11-18T05:51:35.548Z,961.00
2023-11-18T05:52:35.518Z,961.01
2023-11-18T05:53:35.453Z,960.97
2023-11-18T05:54:35.456Z,960.93
2023-11-18T05:55:35.450Z,960.96
2023-11-18T05:56:35.421Z,960.93
2023-11-18T05:57:35.538Z,960.95
2023-11-18T05:58:35.433Z,960.95
2023-11-18T05:59:35.407Z,960.97
2023-11-18T06:00:41.147Z,961.01
2023-11-18T06:01:35.426Z,961.01
2023-11-18T06:02:35.409Z,961.01
2023-11-18T06:03:35.485Z,960.99
2023-11-18T06:04:35.324Z,960.99
2023-11-18T06:05:35.298Z,961.02
2023-11-18T06:06:35.282Z,960.99
2023-11-18T06:07:35.360Z,961.01
2023-11-18T06:08:35.317Z,961.00
2023-11-18T06:09:35.235Z,961.01
2023-11-18T06:10:35.236Z,961.00
2023-11-18T06:11:35.221Z,960.99
2023-11-18T06:12:35.218Z,961.01
2023-11-18T06:13:35.191Z,961.04
2023-11-18T06:14:35.245Z,961.04
2023-11-18T06:15:35.168Z,961.07
2023-11-18T06:16:35.270Z,961.11
2023-11-18T06:17:35.225Z,961.09
2023-11-18T06:18:35.145Z,961.07
2023-11-18T06:19:35.174Z,961.11
2023-11-18T06:20:35.127Z,961.10
2023-11-18T06:21:35.107Z,961.11
2023-11-18T06:22:35.116Z,961.10
2023-11-18T06:23:35.075Z,961.12
2023-11-18T06:24:35.034Z,961.10
2023-11-18T06:25:35.037Z,961.17
2023-11-18T06:26:35.032Z,961.14
2023-11-18T06:27:34.997Z,961.13
2023-11-18T06:28:35.101Z,961.16
2023-11-18T06:29:34.976Z,961.18
2023-11-18T06:30:35.012Z,961.18
2023-11-18T06:31:34.981Z,961.18
2023-11-18T06:32:34.986Z,961.16
2023-11-18T06:33:34.926Z,961.17
2023-11-18T06:34:35.097Z,961.20
2023-11-18T06:35:34.883Z,961.18
2023-11-18T06:36:34.891Z,961.21
2023-11-18T06:37:34.878Z,961.27
2023-11-18T06:38:34.879Z,961.26
2023-11-18T06:39:34.847Z,961.28
2023-11-18T06:40:34.840Z,961.27
2023-11-18T06:41:35.347Z,961.27
2023-11-18T06:42:34.792Z,961.23
2023-11-18T06:43:34.885Z,961.27
2023-11-18T06:44:34.770Z,961.28
2023-11-18T06:45:34.768Z,961.27
2023-11-18T06:46:35.039Z,961.30
2023-11-18T06:47:34.844Z,961.26
2023-11-18T06:48:34.749Z,961.28
2023-11-18T06:49:34.725Z,961.32
2023-11-18T06:50:34.697Z,961.32
2023-11-18T06:51:34.672Z,961.36
2023-11-18T06:52:34.663Z,961.33
2023-11-18T06:53:34.670Z,961.33
2023-11-18T06:54:34.655Z,961.34
2023-11-18T06:55:34.654Z,961.30
2023-11-18T06:56:34.614Z,961.29
2023-11-18T06:57:34.602Z,961.30
2023-11-18T06:58:34.587Z,961.28
2023-11-18T06:59:34.570Z,961.28
2023-11-18T07:00:34.598Z,961.31
2023-11-18T07:01:34.570Z,961.37
2023-11-18T07:02:34.581Z,961.37
2023-11-18T07:03:34.688Z,961.39
2023-11-18T07:04:34.498Z,961.43
2023-11-18T07:05:34.508Z,961.41
2023-11-18T07:06:34.487Z,961.43
2023-11-18T07:07:34.500Z,961.43
2023-11-18T07:08:34.469Z,961.45
2023-11-18T07:09:34.449Z,961.46
2023-11-18T07:10:34.428Z,961.42
2023-11-18T07:11:34.423Z,961.41
2023-11-18T07:12:34.401Z,961.42
2023-11-18T07:13:34.413Z,961.44
2023-11-18T07:14:34.410Z,961.41
2023-11-18T07:15:34.361Z,961.40
2023-11-18T07:16:34.350Z,961.39
2023-11-18T07:17:34.354Z,961.37
2023-11-18T07:18:35.160Z,961.39
2023-11-18T07:19:34.390Z,961.39
2023-11-18T07:20:34.305Z,961.38
2023-11-18T07:21:34.300Z,961.39
2023-11-18T07:22:34.275Z,961.46
2023-11-18T07:23:34.243Z,961.45
2023-11-18T07:24:34.277Z,961.51
2023-11-18T07:25:34.222Z,961.49
2023-11-18T07:26:34.223Z,961.52
2023-11-18T07:27:34.194Z,961.45
2023-11-18T07:28:34.179Z,961.49
2023-11-18T07:29:34.193Z,961.51
2023-11-18T07:30:34.184Z,961.54
2023-11-18T07:31:34.173Z,961.53
2023-11-18T07:32:34.168Z,961.45
2023-11-18T07:33:34.128Z,961.46
2023-11-18T07:34:34.121Z,961.46
2023-11-18T07:35:34.125Z,961.50
2023-11-18T07:36:34.097Z,961.55
2023-11-18T07:37:34.108Z,961.58
2023-11-18T07:38:34.059Z,961.57
2023-11-18T07:39:34.057Z,961.54
2023-11-18T07:40:34.069Z,961.55
2023-11-18T07:41:34.494Z,961.57
2023-11-18T07:42:33.999Z,961.60
2023-11-18T07:43:33.989Z,961.64
2023-11-18T07:44:34.980Z,961.68
2023-11-18T07:45:33.996Z,961.63
2023-11-18T07:46:33.970Z,961.64
2023-11-18T07:47:33.980Z,961.65
2023-11-18T07:48:33.948Z,961.59
2023-11-18T07:49:33.922Z,961.60
2023-11-18T07:50:33.893Z,961.56
2023-11-18T07:51:33.883Z,961.55
2023-11-18T07:52:33.905Z,961.52
2023-11-18T07:53:33.879Z,961.47
2023-11-18T07:54:33.904Z,961.47
2023-11-18T07:55:33.866Z,961.43
2023-11-18T07:56:34.475Z,961.38
2023-11-18T07:57:33.850Z,961.42
2023-11-18T07:58:33.799Z,961.48
2023-11-18T07:59:33.761Z,961.48
2023-11-18T08:00:33.746Z,961.54
2023-11-18T08:01:33.782Z,961.58
2023-11-18T08:02:33.822Z,961.54
2023-11-18T08:03:33.803Z,961.56
2023-11-18T08:04:33.735Z,961.59
2023-11-18T08:05:33.704Z,961.63
2023-11-18T08:06:33.690Z,961.61
2023-11-18T08:07:33.680Z,961.58
2023-11-18T08:08:33.664Z,961.66
2023-11-18T08:09:33.664Z,961.68
2023-11-18T08:10:33.630Z,961.71
2023-11-18T08:11:33.629Z,961.72
2023-11-18T08:12:33.597Z,961.73
2023-11-18T08:13:33.603Z,961.75
2023-11-18T08:14:33.594Z,961.77
2023-11-18T08:15:33.598Z,961.80
2023-11-18T08:16:33.606Z,961.79
2023-11-18T08:17:33.654Z,961.85
2023-11-18T08:18:33.517Z,961.84
2023-11-18T08:19:33.498Z,961.87
2023-11-18T08:20:33.505Z,961.86
2023-11-18T08:21:33.463Z,961.82
2023-11-18T08:22:33.476Z,961.84
2023-11-18T08:23:33.446Z,961.79
2023-11-18T08:24:33.427Z,961.76
2023-11-18T08:25:33.924Z,961.77
2023-11-18T08:26:33.404Z,961.74
2023-11-18T08:27:33.408Z,961.71
2023-11-18T08:28:33.386Z,961.70
2023-11-18T08:29:33.433Z,961.69
2023-11-18T08:30:33.376Z,961.71
2023-11-18T08:31:33.415Z,961.71
2023-11-18T08:32:33.469Z,961.70
2023-11-18T08:33:33.344Z,961.67
2023-11-18T08:34:33.334Z,961.73
2023-11-18T08:35:33.292Z,961.68
2023-11-18T08:36:33.269Z,961.77
2023-11-18T08:37:33.279Z,961.74
2023-11-18T08:38:33.244Z,961.76
2023-11-18T08:39:33.250Z,961.76
2023-11-18T08:40:33.226Z,961.74
2023-11-18T08:41:33.237Z,961.70
2023-11-18T08:42:33.232Z,961.71
2023-11-18T08:43:33.598Z,961.68
2023-11-18T08:44:33.179Z,961.70
2023-11-18T08:45:33.216Z,961.68
2023-11-18T08:46:33.219Z,961.66
2023-11-18T08:47:33.309Z,961.67
2023-11-18T08:48:33.172Z,961.67
2023-11-18T08:49:33.095Z,961.69
2023-11-18T08:50:33.509Z,961.70
2023-11-18T08:51:33.154Z,961.68
2023-11-18T08:52:33.073Z,961.72
2023-11-18T08:53:33.105Z,961.74
2023-11-18T08:54:33.069Z,961.73
2023-11-18T08:55:33.034Z,961.75
2023-11-18T08:56:33.017Z,961.77
2023-11-18T08:57:33.093Z,961.80
2023-11-18T08:58:32.974Z,961.91
2023-11-18T08:59:32.971Z,961.95
2023-11-18T09:00:32.998Z,961.94
2023-11-18T09:01:33.065Z,961.91
2023-11-18T09:02:39.031Z,961.88
2023-11-18T09:03:32.984Z,961.94
2023-11-18T09:04:32.945Z,961.96
2023-11-18T09:05:32.908Z,961.92
2023-11-18T09:06:32.936Z,961.96
2023-11-18T09:07:32.861Z,961.97
2023-11-18T09:08:32.847Z,961.95
2023-11-18T09:09:32.850Z,961.93
2023-11-18T09:10:32.865Z,961.98
2023-11-18T09:11:32.925Z,962.02
2023-11-18T09:12:32.807Z,962.05
2023-11-18T09:13:32.912Z,962.03
2023-11-18T09:14:32.856Z,962.01
2023-11-18T09:15:32.751Z,962.03
2023-11-18T09:16:32.742Z,961.99
2023-11-18T09:17:32.895Z,962.02
2023-11-18T09:18:32.835Z,961.97
2023-11-18T09:19:32.737Z,962.04
2023-11-18T09:20:32.672Z,962.07
2023-11-18T09:21:32.689Z,962.11
2023-11-18T09:22:32.663Z,962.08
2023-11-18T09:23:32.684Z,962.11
2023-11-18T09:24:35.295Z,962.04
2023-11-18T09:25:32.708Z,962.09
2023-11-18T09:26:32.617Z,962.10
2023-11-18T09:27:32.627Z,962.08
2023-11-18T09:28:32.581Z,962.04
2023-11-18T09:29:32.584Z,962.00
2023-11-18T09:30:32.553Z,962.01
2023-11-18T09:31:32.562Z,961.97
2023-11-18T09:32:32.670Z,961.94
2023-11-18T09:33:32.568Z,961.86
2023-11-18T09:34:32.492Z,961.84
2023-11-18T09:35:32.525Z,961.78
2023-11-18T09:36:32.466Z,961.80
2023-11-18T09:37:32.454Z,961.78
2023-11-18T09:38:32.545Z,961.79
2023-11-18T09:39:32.430Z,961.80
2023-11-18T09:40:32.429Z,961.82
2023-11-18T09:41:32.440Z,961.79
2023-11-18T09:42:32.387Z,961.82
2023-11-18T09:43:32.374Z,961.83
2023-11-18T09:44:32.357Z,961.86
2023-11-18T09:45:32.383Z,961.85
2023-11-18T09:46:33.297Z,961.84
2023-11-18T09:47:32.425Z,961.86
2023-11-18T09:48:32.314Z,961.86
2023-11-18T09:49:32.302Z,961.85
2023-11-18T09:50:32.374Z,961.81
2023-11-18T09:51:32.279Z,961.79
2023-11-18T09:52:32.264Z,961.82
2023-11-18T09:53:32.298Z,961.80
2023-11-18T09:54:32.226Z,961.76
2023-11-18T09:55:32.212Z,961.78
2023-11-18T09:56:32.200Z,961.76
2023-11-18T09:57:32.202Z,961.81
2023-11-18T09:58:32.184Z,961.78
2023-11-18T09:59:32.189Z,961.78
2023-11-18T10:00:32.163Z,961.76
2023-11-18T10:01:32.139Z,961.76
2023-11-18T10:02:32.259Z,961.75
2023-11-18T10:03:32.180Z,961.75
2023-11-18T10:04:32.130Z,961.74
2023-11-18T10:05:32.207Z,961.70
2023-11-18T10:06:32.057Z,961.73
2023-11-18T10:07:32.059Z,961.75
2023-11-18T10:08:32.044Z,961.72
2023-11-18T10:09:32.055Z,961.79
2023-11-18T10:10:32.031Z,961.72
2023-11-18T10:11:32.006Z,961.75
2023-11-18T10:12:32.007Z,961.72
2023-11-18T10:13:31.971Z,961.73
2023-11-18T10:14:31.957Z,961.65
2023-11-18T10:15:31.967Z,961.67
2023-11-18T10:16:31.936Z,961.66
2023-11-18T10:17:32.017Z,961.66
2023-11-18T10:18:31.985Z,961.62
2023-11-18T10:19:31.901Z,961.62
2023-11-18T10:20:31.902Z,961.56
2023-11-18T10:21:31.874Z,961.52
2023-11-18T10:22:31.857Z,961.51
2023-11-18T10:23:31.862Z,961.49
2023-11-18T10:24:31.851Z,961.57
2023-11-18T10:25:31.814Z,961.55
2023-11-18T10:26:31.818Z,961.54
2023-11-18T10:27:31.782Z,961.56
2023-11-18T10:28:31.776Z,961.57
2023-11-18T10:29:31.767Z,961.54
2023-11-18T10:30:31.738Z,961.47
2023-11-18T10:31:31.730Z,961.53
2023-11-18T10:32:31.979Z,961.45
2023-11-18T10:33:32.229Z,961.40
2023-11-18T10:34:31.685Z,961.34
2023-11-18T10:35:31.710Z,961.35
2023-11-18T10:36:31.669Z,961.35
2023-11-18T10:37:31.783Z,961.36
2023-11-18T10:38:31.657Z,961.43
2023-11-18T10:39:31.648Z,961.41
2023-11-18T10:40:31.609Z,961.32
2023-11-18T10:41:31.663Z,961.35
2023-11-18T10:42:31.711Z,961.32
2023-11-18T10:43:31.566Z,961.28
2023-11-18T10:44:31.616Z,961.31
2023-11-18T10:45:31.560Z,961.32
2023-11-18T10:46:31.638Z,961.30
2023-11-18T10:47:31.589Z,961.34
2023-11-18T10:48:31.507Z,961.32
2023-11-18T10:49:31.484Z,961.30
2023-11-18T10:50:31.538Z,961.31
2023-11-18T10:51:31.466Z,961.29
2023-11-18T10:52:31.446Z,961.30
2023-11-18T10:53:31.436Z,961.21
2023-11-18T10:54:31.419Z,961.27
2023-11-18T10:55:31.401Z,961.26
2023-11-18T10:56:31.428Z,961.28
2023-11-18T10:57:31.512Z,961.27
2023-11-18T10:58:31.372Z,961.26
2023-11-18T10:59:31.346Z,961.19
2023-11-18T11:00:31.347Z,961.22
2023-11-18T11:01:31.389Z,961.23
2023-11-18T11:02:31.416Z,961.19
2023-11-18T11:03:31.362Z,961.19
2023-11-18T11:04:31.291Z,961.18
2023-11-18T11:05:31.337Z,961.16
2023-11-18T11:06:31.337Z,961.13
2023-11-18T11:07:31.282Z,961.08
2023-11-18T11:08:39.154Z,961.11
2023-11-18T11:09:31.225Z,961.10
2023-11-18T11:10:31.213Z,961.06
2023-11-18T11:11:31.236Z,961.03
2023-11-18T11:12:31.216Z,961.07
2023-11-18T11:13:31.167Z,961.04
2023-11-18T11:14:31.153Z,961.03
2023-11-18T11:15:33.983Z,961.01
2023-11-18T11:16:31.153Z,961.02
2023-11-18T11:17:31.742Z,961.03
2023-11-18T11:18:31.141Z,961.02
2023-11-18T11:19:31.087Z,960.99
2023-11-18T11:20:31.316Z,961.01
2023-11-18T11:21:31.086Z,961.02
2023-11-18T11:22:31.036Z,961.02
2023-11-18T11:23:31.132Z,960.98
2023-11-18T11:24:31.018Z,961.03
2023-11-18T11:25:30.996Z,961.04
2023-11-18T11:26:31.199Z,961.14
2023-11-18T11:27:30.961Z,961.12
2023-11-18T11:28:31.037Z,961.10
2023-11-18T11:29:30.993Z,961.12
2023-11-18T11:30:30.938Z,961.13
2023-11-18T11:31:31.132Z,961.13
2023-11-18T11:32:30.915Z,961.16
2023-11-18T11:33:30.999Z,961.14
2023-11-18T11:34:30.928Z,961.14
2023-11-18T11:35:30.910Z,961.15
2023-11-18T11:36:30.851Z,961.11
2023-11-18T11:37:30.828Z,961.10
2023-11-18T11:38:30.830Z,961.10
2023-11-18T11:39:30.850Z,961.11
2023-11-18T11:40:30.839Z,961.06
2023-11-18T11:41:30.779Z,961.03
2023-11-18T11:42:30.776Z,961.02
2023-11-18T11:43:30.749Z,960.99
2023-11-18T11:44:31.563Z,960.98
2023-11-18T11:45:30.775Z,960.97
2023-11-18T11:46:30.820Z,960.97
2023-11-18T11:47:30.827Z,961.01
2023-11-18T11:48:30.717Z,961.05
2023-11-18T11:49:30.681Z,961.07
2023-11-18T11:50:30.740Z,961.11
2023-11-18T11:51:30.650Z,961.13
2023-11-18T11:52:30.633Z,961.12
2023-11-18T11:53:30.666Z,961.13
2023-11-18T11:54:30.638Z,961.12
2023-11-18T11:55:30.611Z,961.08
2023-11-18T11:56:30.596Z,961.05
2023-11-18T11:57:34.067Z,961.04
2023-11-18T11:58:30.555Z,961.09
2023-11-18T11:59:30.573Z,961.13
2023-11-18T12:00:30.505Z,961.12
2023-11-18T12:01:30.581Z,961.13
2023-11-18T12:02:30.887Z,961.11
2023-11-18T12:03:30.512Z,961.12
2023-11-18T12:04:30.534Z,961.11
2023-11-18T12:05:30.508Z,961.08
2023-11-18T12:06:30.446Z,961.06
2023-11-18T12:07:30.449Z,961.00
2023-11-18T12:08:30.429Z,960.98
2023-11-18T12:09:30.398Z,961.03
2023-11-18T12:10:30.408Z,961.03
2023-11-18T12:11:30.368Z,960.99
2023-11-18T12:12:30.399Z,960.97
2023-11-18T12:13:30.345Z,960.89
2023-11-18T12:14:30.382Z,960.91
2023-11-18T12:15:30.350Z,960.93
2023-11-18T12:16:30.327Z,960.95
2023-11-18T12:17:30.459Z,960.97
2023-11-18T12:18:30.310Z,961.03
2023-11-18T12:19:30.304Z,960.97
2023-11-18T12:20:30.255Z,960.95
2023-11-18T12:21:30.332Z,960.93
2023-11-18T12:22:30.220Z,960.95
2023-11-18T12:23:30.292Z,960.92
2023-11-18T12:24:30.205Z,960.91
2023-11-18T12:25:30.165Z,960.84
2023-11-18T12:26:30.217Z,960.86
2023-11-18T12:27:30.147Z,960.79
2023-11-18T12:28:30.157Z,960.89